createdAt,value
2022-12-19T00:03:35.586Z,4.77
2022-12-19T00:08:44.639Z,4.87
2022-12-19T00:13:53.150Z,4.87
2022-12-19T00:18:59.497Z,5.40
2022-12-19T00:24:20.844Z,4.80
2022-12-19T00:29:28.469Z,5.17
2022-12-19T00:34:37.870Z,5.17
2022-12-19T00:39:48.491Z,4.77
2022-12-19T00:44:53.970Z,5.07
2022-12-19T00:50:08.250Z,5.00
2022-12-19T00:55:19.022Z,4.37
2022-12-19T01:00:35.822Z,4.70
2022-12-19T01:05:40.759Z,4.70
2022-12-19T01:10:49.658Z,4.60
2022-12-19T01:15:58.110Z,4.37
2022-12-19T01:21:09.557Z,4.63
2022-12-19T01:26:28.937Z,4.60
2022-12-19T01:31:35.241Z,4.20
2022-12-19T01:36:40.122Z,4.27
2022-12-19T01:41:53.386Z,4.37
2022-12-19T01:47:00.171Z,3.30
2022-12-19T01:52:12.347Z,4.23
2022-12-19T01:57:28.345Z,4.80
2022-12-19T02:02:42.133Z,4.47
2022-12-19T02:07:50.325Z,4.50
2022-12-19T02:12:59.892Z,4.43
2022-12-19T02:18:16.175Z,4.70
2022-12-19T02:23:59.150Z,4.60
2022-12-19T02:29:41.241Z,3.97
2022-12-19T02:35:01.866Z,3.93
2022-12-19T02:40:14.159Z,4.40
2022-12-19T02:45:28.469Z,4.43
2022-12-19T02:50:50.248Z,3.70
2022-12-19T02:56:17.942Z,4.40
2022-12-19T03:01:35.474Z,4.47
2022-12-19T03:06:54.791Z,3.70
2022-12-19T03:12:07.289Z,3.93
2022-12-19T03:17:17.085Z,4.50
2022-12-19T03:22:26.449Z,4.30
2022-12-19T03:27:40.260Z,4.50
2022-12-19T03:33:00.629Z,4.13
2022-12-19T03:38:07.734Z,4.00
2022-12-19T03:43:21.312Z,4.50
2022-12-19T03:48:38.196Z,4.23
2022-12-19T03:54:14.328Z,3.80
2022-12-19T03:59:28.117Z,3.60
2022-12-19T04:04:47.475Z,3.70
2022-12-19T04:10:10.024Z,3.90
2022-12-19T04:15:24.302Z,3.70
2022-12-19T04:20:32.003Z,3.90
2022-12-19T04:25:46.480Z,3.60
2022-12-19T04:30:51.679Z,3.77
2022-12-19T04:36:07.078Z,3.97
2022-12-19T04:41:17.119Z,4.20
2022-12-19T04:46:28.529Z,4.23
2022-12-19T04:51:49.443Z,3.33
2022-12-19T04:57:06.814Z,4.33
2022-12-19T05:02:22.169Z,4.43
2022-12-19T05:07:50.893Z,4.00
2022-12-19T05:18:44.752Z,4.23
2022-12-19T05:23:52.004Z,4.30
2022-12-19T05:29:03.459Z,3.87
2022-12-19T05:34:19.414Z,4.60
2022-12-19T05:39:37.542Z,4.27
2022-12-19T05:44:52.113Z,4.07
2022-12-19T05:50:01.668Z,3.87
2022-12-19T05:55:11.509Z,4.10
2022-12-19T06:00:31.866Z,4.00
2022-12-19T06:05:39.449Z,3.57
2022-12-19T06:10:50.886Z,3.37
2022-12-19T06:16:20.030Z,3.67
2022-12-19T06:22:00.551Z,3.27
2022-12-19T06:27:18.997Z,3.50
2022-12-19T06:32:27.139Z,3.97
2022-12-19T06:37:31.055Z,3.50
2022-12-19T06:42:35.057Z,3.80
2022-12-19T06:47:40.021Z,3.90
2022-12-19T06:53:05.346Z,3.70
2022-12-19T06:58:34.296Z,3.80
2022-12-19T07:04:07.386Z,3.80
2022-12-19T07:09:37.203Z,3.73
2022-12-19T07:26:43.086Z,4.80
2022-12-19T07:32:09.031Z,3.90
2022-12-19T07:37:43.789Z,4.07
2022-12-19T07:43:27.352Z,4.43
2022-12-19T07:49:03.611Z,4.40
2022-12-19T07:54:11.909Z,4.70
2022-12-19T07:59:39.569Z,4.10
2022-12-19T08:05:01.929Z,4.80
2022-12-19T08:10:21.367Z,5.50
2022-12-19T08:15:34.108Z,4.57
2022-12-19T08:20:58.505Z,4.23
2022-12-19T08:26:34.008Z,4.67
2022-12-19T08:31:42.502Z,4.23
2022-12-19T08:36:51.238Z,4.33
2022-12-19T08:42:29.257Z,4.43
2022-12-19T08:47:40.631Z,4.53
2022-12-19T08:52:47.788Z,5.30
2022-12-19T08:58:15.766Z,6.87
2022-12-19T09:03:51.273Z,6.67
2022-12-19T09:09:29.032Z,5.60
2022-12-19T09:14:39.463Z,5.37
2022-12-19T09:20:23.364Z,5.57
2022-12-19T09:25:56.813Z,4.97
2022-12-19T09:31:37.498Z,5.10
2022-12-19T09:37:03.886Z,5.60
2022-12-19T09:42:43.852Z,5.63
2022-12-19T09:48:23.892Z,6.33
2022-12-19T09:54:01.468Z,6.10
2022-12-19T10:32:45.139Z,6.07
2022-12-19T10:38:31.858Z,6.23
2022-12-19T10:44:04.384Z,7.33
2022-12-19T10:49:29.705Z,6.00
2022-12-19T10:54:55.871Z,5.93
2022-12-19T11:00:04.624Z,5.57
2022-12-19T11:05:28.882Z,5.73
2022-12-19T11:12:31.493Z,5.87
2022-12-19T11:22:21.274Z,5.40
2022-12-19T11:29:46.978Z,5.73
2022-12-19T11:30:40.817Z,5.60
2022-12-19T11:32:41.546Z,6.00
2022-12-19T11:37:55.726Z,6.03
2022-12-19T11:43:43.206Z,5.90
2022-12-19T11:48:45.911Z,5.97
2022-12-19T11:54:01.907Z,5.90
2022-12-19T11:59:23.148Z,5.53
2022-12-19T12:05:02.869Z,6.00
2022-12-19T12:14:12.396Z,5.73
2022-12-19T12:30:37.472Z,6.00
2022-12-19T12:31:05.800Z,5.93
2022-12-19T12:31:45.493Z,5.37
2022-12-19T12:35:34.426Z,5.63
2022-12-19T12:38:24.906Z,6.07
2022-12-19T12:43:58.755Z,5.30
2022-12-19T12:49:09.027Z,5.40
2022-12-19T12:54:20.767Z,5.27
2022-12-19T12:59:28.075Z,5.60
2022-12-19T13:04:36.273Z,5.20
2022-12-19T13:09:44.617Z,5.10
2022-12-19T13:14:50.631Z,4.80
2022-12-19T13:19:57.511Z,4.43
2022-12-19T13:25:03.320Z,5.13
2022-12-19T13:30:20.230Z,4.57
2022-12-19T13:36:48.519Z,5.20
2022-12-19T13:41:25.142Z,4.90
2022-12-19T13:46:40.432Z,4.77
2022-12-19T13:51:48.929Z,4.87
2022-12-19T13:56:54.904Z,3.87
2022-12-19T14:02:09.069Z,4.40
2022-12-19T14:07:40.318Z,12.33
2022-12-19T14:13:46.692Z,5.33
2022-12-19T14:18:44.253Z,5.47
2022-12-19T14:23:49.883Z,5.00
2022-12-19T14:29:01.149Z,5.53
2022-12-19T14:34:35.686Z,5.40
2022-12-19T14:39:33.617Z,5.20
2022-12-19T14:53:08.429Z,4.63
2022-12-19T14:54:21.437Z,4.73
2022-12-19T15:01:38.823Z,4.53
2022-12-19T15:07:10.037Z,5.63
2022-12-19T15:14:47.962Z,6.20
2022-12-19T15:18:08.219Z,6.00
2022-12-19T15:23:15.291Z,5.27
2022-12-19T15:28:32.413Z,5.20
2022-12-19T15:34:14.301Z,4.43
2022-12-19T15:39:11.699Z,5.10
2022-12-19T15:44:26.318Z,6.53
2022-12-19T15:49:37.456Z,6.50
2022-12-19T15:55:10.409Z,6.63
2022-12-19T16:00:31.810Z,6.20
2022-12-19T16:06:00.764Z,6.03
2022-12-19T16:11:09.643Z,5.80
2022-12-19T16:16:17.823Z,5.57
2022-12-19T16:21:34.069Z,6.60
2022-12-19T16:26:41.492Z,4.97
2022-12-19T16:31:45.723Z,6.57
2022-12-19T16:36:58.654Z,6.10
2022-12-19T16:42:15.261Z,6.40
2022-12-19T16:47:21.553Z,6.80
2022-12-19T16:52:28.691Z,6.63
2022-12-19T16:57:34.336Z,6.37
2022-12-19T17:02:43.667Z,6.03
2022-12-19T17:07:55.154Z,7.13
2022-12-19T17:13:00.656Z,6.13
2022-12-19T17:18:18.715Z,6.43
2022-12-19T17:23:30.338Z,7.23
2022-12-19T17:28:36.842Z,7.63
2022-12-19T17:33:57.278Z,8.93
2022-12-19T17:39:06.563Z,9.50
2022-12-19T17:44:15.349Z,9.10
2022-12-19T17:49:23.725Z,9.07
2022-12-19T17:54:36.365Z,8.57
2022-12-19T17:59:42.925Z,9.00
2022-12-19T18:04:46.583Z,8.43
2022-12-19T18:09:53.187Z,8.73
2022-12-19T18:14:57.116Z,8.60
2022-12-19T18:20:02.030Z,8.47
2022-12-19T18:25:17.740Z,9.87
2022-12-19T18:30:25.593Z,9.63
2022-12-19T18:35:35.775Z,10.03
2022-12-19T18:40:46.854Z,10.10
2022-12-19T18:45:56.760Z,9.50
2022-12-19T18:51:17.204Z,9.67
2022-12-19T18:56:22.892Z,9.20
2022-12-19T19:01:27.999Z,8.73
2022-12-19T19:06:38.314Z,8.90
2022-12-19T19:11:49.915Z,8.80
2022-12-19T19:16:56.580Z,9.00
2022-12-19T19:22:19.770Z,8.33
2022-12-19T19:27:35.605Z,9.83
2022-12-19T19:32:46.274Z,9.17
2022-12-19T19:37:55.073Z,9.07
2022-12-19T19:43:06.152Z,9.67
2022-12-19T19:48:19.472Z,8.93
2022-12-19T19:53:25.418Z,9.80
2022-12-19T19:58:31.664Z,9.20
2022-12-19T20:03:41.113Z,9.30
2022-12-19T20:08:48.269Z,9.90
2022-12-19T20:14:02.354Z,9.07
2022-12-19T20:19:09.325Z,9.57
2022-12-19T20:24:16.064Z,9.40
2022-12-19T20:29:28.537Z,8.30
2022-12-19T20:34:36.219Z,10.07
2022-12-19T20:39:45.406Z,11.03
2022-12-19T20:44:53.039Z,10.33
2022-12-19T20:49:59.202Z,9.67
2022-12-19T20:55:10.083Z,11.07
2022-12-19T21:00:18.432Z,9.83
2022-12-19T21:05:25.471Z,9.07
2022-12-19T21:10:29.321Z,8.33
2022-12-19T21:15:35.587Z,8.60
2022-12-19T21:20:41.004Z,8.00
2022-12-19T21:25:46.130Z,7.63
2022-12-19T21:31:06.335Z,6.57
2022-12-19T21:36:16.096Z,6.07
2022-12-19T21:41:20.467Z,7.50
2022-12-19T21:46:27.320Z,8.87
2022-12-19T21:51:32.647Z,8.47
2022-12-19T21:56:42.760Z,10.17
2022-12-19T22:01:49.312Z,10.33
2022-12-19T22:06:55.253Z,11.53
2022-12-19T22:12:00.927Z,11.60
2022-12-19T22:17:06.913Z,10.57
2022-12-19T22:22:12.159Z,9.70
2022-12-19T22:27:17.625Z,9.00
2022-12-19T22:32:22.911Z,8.30
2022-12-19T22:37:27.314Z,9.23
2022-12-19T22:42:31.066Z,9.20
2022-12-19T22:47:37.197Z,8.80
2022-12-19T22:52:42.738Z,9.93
2022-12-19T22:57:46.651Z,9.67
2022-12-19T23:02:51.971Z,9.00
2022-12-19T23:08:00.117Z,10.77
2022-12-19T23:13:06.494Z,14.33
2022-12-19T23:18:11.568Z,14.17
2022-12-19T23:23:16.010Z,10.70
2022-12-19T23:28:23.563Z,9.93
2022-12-19T23:34:19.476Z,9.87
2022-12-19T23:39:27.032Z,10.57
2022-12-19T23:44:30.993Z,11.17
2022-12-19T23:49:37.522Z,10.20
2022-12-19T23:54:42.829Z,12.43
